createdAt,value
2023-04-29T00:00:55.249Z,13.92
2023-04-29T00:03:23.317Z,13.92
2023-04-29T00:05:51.507Z,13.91
2023-04-29T00:08:19.552Z,13.89
2023-04-29T00:10:48.687Z,13.90
2023-04-29T00:13:16.555Z,13.86
2023-04-29T00:15:44.896Z,13.85
2023-04-29T00:18:14.067Z,13.84
2023-04-29T00:20:43.369Z,13.81
2023-04-29T00:23:11.591Z,13.82
2023-04-29T00:25:39.324Z,13.79
2023-04-29T00:28:08.568Z,13.80
2023-04-29T00:30:36.511Z,13.77
2023-04-29T00:33:04.416Z,13.74
2023-04-29T00:35:32.338Z,13.72
2023-04-29T00:38:00.196Z,13.69
2023-04-29T00:40:29.134Z,13.68
2023-04-29T00:42:57.145Z,13.65
2023-04-29T00:45:27.602Z,13.64
2023-04-29T00:47:55.450Z,13.61
2023-04-29T00:50:23.629Z,13.60
2023-04-29T00:52:52.934Z,13.59
2023-04-29T00:55:21.752Z,13.56
2023-04-29T00:57:52.216Z,13.55
2023-04-29T01:00:20.392Z,13.54
2023-04-29T01:02:51.027Z,13.55
2023-04-29T01:05:19.412Z,13.52
2023-04-29T01:07:57.624Z,13.52
2023-04-29T01:10:29.832Z,13.51
2023-04-29T01:13:07.845Z,13.45
2023-04-29T01:15:44.235Z,13.47
2023-04-29T01:18:19.812Z,13.45
2023-04-29T01:20:48.826Z,13.41
2023-04-29T01:23:16.681Z,13.39
2023-04-29T01:25:46.320Z,13.40
2023-04-29T01:28:28.161Z,13.38
2023-04-29T01:31:01.961Z,13.36
2023-04-29T01:33:41.433Z,13.35
2023-04-29T01:36:18.152Z,13.32
2023-04-29T01:38:52.551Z,13.33
2023-04-29T01:41:32.200Z,13.31
2023-04-29T01:44:14.744Z,13.28
2023-04-29T01:46:44.226Z,13.27
2023-04-29T01:49:12.066Z,13.25
2023-04-29T01:51:39.981Z,13.24
2023-04-29T01:54:08.001Z,13.24
2023-04-29T01:56:37.219Z,13.23
2023-04-29T01:59:21.984Z,13.20
2023-04-29T02:02:08.742Z,13.18
2023-04-29T02:04:40.223Z,13.18
2023-04-29T02:07:08.294Z,13.16
2023-04-29T02:09:36.389Z,13.17
2023-04-29T02:12:11.487Z,13.17
2023-04-29T02:14:39.506Z,13.14
2023-04-29T02:17:07.516Z,13.13
2023-04-29T02:19:35.591Z,13.11
2023-04-29T02:22:03.488Z,13.10
2023-04-29T02:24:31.502Z,13.08
2023-04-29T02:27:00.247Z,13.07
2023-04-29T02:29:31.122Z,13.08
2023-04-29T02:31:59.841Z,13.05
2023-04-29T02:34:27.936Z,13.04
2023-04-29T02:36:55.722Z,13.02
2023-04-29T02:39:23.507Z,13.02
2023-04-29T02:44:44.268Z,12.98
2023-04-29T02:47:12.943Z,12.94
2023-04-29T02:49:41.139Z,12.92
2023-04-29T02:52:09.106Z,12.92
2023-04-29T02:54:37.972Z,12.91
2023-04-29T02:57:06.025Z,12.88
2023-04-29T02:59:33.863Z,12.86
2023-04-29T03:02:03.735Z,12.87
2023-04-29T03:04:31.683Z,12.84
2023-04-29T03:06:59.539Z,12.81
2023-04-29T03:09:28.344Z,12.81
2023-04-29T03:11:56.476Z,12.78
2023-04-29T03:14:24.966Z,12.79
2023-04-29T03:20:33.841Z,12.75
2023-04-29T03:23:40.655Z,12.71
2023-04-29T03:26:11.630Z,12.68
2023-04-29T03:28:52.916Z,12.68
2023-04-29T03:31:23.387Z,12.67
2023-04-29T03:33:53.501Z,12.65
2023-04-29T03:36:22.456Z,12.65
2023-04-29T03:39:04.213Z,12.64
2023-04-29T03:41:32.411Z,12.62
2023-04-29T03:44:01.098Z,12.61
2023-04-29T03:46:30.727Z,12.60
2023-04-29T03:49:02.241Z,12.59
2023-04-29T03:51:30.824Z,12.57
2023-04-29T03:54:13.383Z,12.57
2023-04-29T03:56:41.913Z,12.54
2023-04-29T03:59:10.055Z,12.53
2023-04-29T04:01:39.606Z,12.52
2023-04-29T04:04:08.532Z,12.49
2023-04-29T04:06:39.802Z,12.48
2023-04-29T04:09:08.160Z,12.47
2023-04-29T04:11:37.630Z,12.47
2023-04-29T04:14:06.573Z,12.45
2023-04-29T04:16:34.654Z,12.43
2023-04-29T04:19:04.448Z,12.44
2023-04-29T04:21:36.897Z,12.42
2023-04-29T04:24:09.108Z,12.41
2023-04-29T04:26:41.548Z,12.43
2023-04-29T04:29:17.217Z,12.41
2023-04-29T04:31:55.921Z,12.39
2023-04-29T04:34:24.982Z,12.40
2023-04-29T04:36:53.947Z,12.39
2023-04-29T04:39:23.528Z,12.37
2023-04-29T04:41:53.846Z,12.38
2023-04-29T04:44:22.166Z,12.37
2023-04-29T04:47:11.665Z,12.36
2023-04-29T04:49:53.353Z,12.36
2023-04-29T04:52:22.690Z,12.36
2023-04-29T04:55:01.196Z,12.35
2023-04-29T04:57:32.849Z,12.36
2023-04-29T05:00:04.063Z,12.35
2023-04-29T05:02:32.828Z,12.34
2023-04-29T05:05:00.935Z,12.34
2023-04-29T05:07:32.029Z,12.33
2023-04-29T05:10:08.470Z,12.33
2023-04-29T05:12:43.882Z,12.33
2023-04-29T05:15:12.691Z,12.31
2023-04-29T05:17:40.916Z,12.30
2023-04-29T05:20:10.229Z,12.30
2023-04-29T05:22:38.136Z,12.29
2023-04-29T05:25:06.681Z,12.27
2023-04-29T05:27:36.445Z,12.26
2023-04-29T05:30:09.794Z,12.28
2023-04-29T05:32:37.800Z,12.25
2023-04-29T05:35:08.486Z,12.26
2023-04-29T05:37:36.780Z,12.23
2023-04-29T05:40:14.121Z,12.23
2023-04-29T05:42:42.688Z,12.23
2023-04-29T05:45:16.992Z,12.25
2023-04-29T05:47:48.066Z,12.22
2023-04-29T05:50:16.484Z,12.21
2023-04-29T05:52:44.559Z,12.21
2023-04-29T05:55:14.188Z,12.22
2023-04-29T05:57:42.213Z,12.21
2023-04-29T06:00:13.375Z,12.22
2023-04-29T06:03:05.864Z,12.23
2023-04-29T06:05:55.060Z,12.19
2023-04-29T06:08:38.742Z,12.19
2023-04-29T06:11:16.261Z,12.21
2023-04-29T06:13:44.934Z,12.21
2023-04-29T06:16:14.651Z,12.25
2023-04-29T06:18:42.910Z,12.22
2023-04-29T06:21:10.826Z,12.23
2023-04-29T06:23:38.710Z,12.23
2023-04-29T06:26:13.358Z,12.23
2023-04-29T06:28:41.298Z,12.23
2023-04-29T06:31:11.599Z,12.24
2023-04-29T06:33:41.999Z,12.24
2023-04-29T06:36:10.352Z,12.23
2023-04-29T06:38:58.556Z,12.22
2023-04-29T06:41:52.707Z,12.22
2023-04-29T06:44:34.554Z,12.22
2023-04-29T06:47:29.550Z,12.22
2023-04-29T06:50:13.414Z,12.22
2023-04-29T06:52:41.356Z,12.21
2023-04-29T06:55:11.407Z,12.21
2023-04-29T06:57:42.807Z,12.21
2023-04-29T07:00:11.599Z,12.21
2023-04-29T07:02:40.175Z,12.19
2023-04-29T07:05:09.427Z,12.21
2023-04-29T07:07:38.995Z,12.21
2023-04-29T07:10:07.620Z,12.20
2023-04-29T07:12:35.679Z,12.19
2023-04-29T07:15:03.669Z,12.20
2023-04-29T07:17:32.016Z,12.19
2023-04-29T07:20:00.289Z,12.20
2023-04-29T07:22:28.442Z,12.19
2023-04-29T07:24:57.831Z,12.21
2023-04-29T07:27:26.267Z,12.18
2023-04-29T07:29:54.152Z,12.18
2023-04-29T07:32:25.792Z,12.20
2023-04-29T07:35:14.437Z,12.18
2023-04-29T07:37:44.103Z,12.19
2023-04-29T07:40:14.109Z,12.21
2023-04-29T07:42:42.270Z,12.19
2023-04-29T07:45:11.646Z,12.20
2023-04-29T07:47:39.630Z,12.19
2023-04-29T07:50:08.341Z,12.20
2023-04-29T07:52:36.523Z,12.19
2023-04-29T07:55:04.782Z,12.19
2023-04-29T07:57:34.201Z,12.19
2023-04-29T08:00:04.217Z,12.18
2023-04-29T08:02:43.054Z,12.17
2023-04-29T08:05:14.634Z,12.19
2023-04-29T08:07:48.315Z,12.18
2023-04-29T08:10:16.763Z,12.20
2023-04-29T08:12:48.531Z,12.21
2023-04-29T08:15:16.690Z,12.18
2023-04-29T08:17:44.450Z,12.18
2023-04-29T08:20:13.790Z,12.20
2023-04-29T08:22:42.507Z,12.19
2023-04-29T08:25:11.258Z,12.20
2023-04-29T08:27:39.403Z,12.20
2023-04-29T08:30:10.379Z,12.23
2023-04-29T08:32:38.564Z,12.22
2023-04-29T08:35:07.276Z,12.23
2023-04-29T08:37:35.191Z,12.23
2023-04-29T08:40:03.592Z,12.24
2023-04-29T08:42:34.906Z,12.27
2023-04-29T08:45:17.359Z,12.29
2023-04-29T08:47:45.795Z,12.24
2023-04-29T08:50:13.634Z,12.27
2023-04-29T08:52:41.593Z,12.27
2023-04-29T08:55:10.230Z,12.29
2023-04-29T08:57:40.304Z,12.29
2023-04-29T09:00:11.434Z,12.28
2023-04-29T09:02:46.590Z,12.30
2023-04-29T09:05:14.648Z,12.27
2023-04-29T09:07:43.410Z,12.27
2023-04-29T09:10:11.889Z,12.27
2023-04-29T09:12:39.761Z,12.27
2023-04-29T09:15:08.662Z,12.27
2023-04-29T09:17:42.580Z,12.27
2023-04-29T09:20:32.261Z,12.25
2023-04-29T09:23:02.606Z,12.23
2023-04-29T09:25:31.454Z,12.23
2023-04-29T09:27:59.345Z,12.23
2023-04-29T09:30:27.434Z,12.22
2023-04-29T09:33:10.499Z,12.23
2023-04-29T09:35:41.508Z,12.20
2023-04-29T09:38:11.851Z,12.21
2023-04-29T09:40:54.270Z,12.19
2023-04-29T09:43:26.310Z,12.17
2023-04-29T09:45:54.548Z,12.18
2023-04-29T09:48:32.014Z,12.20
2023-04-29T09:51:04.016Z,12.20
2023-04-29T09:53:32.737Z,12.15
2023-04-29T09:56:01.914Z,12.19
2023-04-29T09:58:31.536Z,12.18
2023-04-29T10:01:01.639Z,12.19
2023-04-29T10:03:34.454Z,12.19
2023-04-29T10:06:04.120Z,12.17
2023-04-29T10:08:32.555Z,12.17
2023-04-29T10:11:02.054Z,12.19
2023-04-29T10:13:31.226Z,12.18
2023-04-29T10:16:07.593Z,12.22
2023-04-29T10:18:42.226Z,12.22
2023-04-29T10:21:10.538Z,12.22
2023-04-29T10:23:38.762Z,12.24
2023-04-29T10:26:07.377Z,12.25
2023-04-29T10:28:38.580Z,12.29
2023-04-29T10:31:08.847Z,12.29
2023-04-29T10:33:41.024Z,12.30
2023-04-29T10:36:09.320Z,12.29
